Time;durP1;ratioP1;P1;durP2;ratioP2;P2;SDS_P1;SDS_P2;PMS_P1;PMS_P2;Temp;Humidity;BMP_temperature;BMP_pressure;BME280_temperature;BME280_humidity;BME280_pressure;Samples;Min_cycle;Max_cycle;Signal;HPM_P1;HPM_P2
2021/04/01 00:02:04;;;;;;;4.68;1.17;;;;;;;;;;4961616;28;20110;-55
2021/04/01 00:04:30;;;;;;;5.38;1.05;;;;;;;;;;4959107;28;20035;-55
2021/04/01 00:06:55;;;;;;;6.97;1.45;;;;;;;;;;4960752;28;20047;-56
2021/04/01 00:09:21;;;;;;;11.63;1.67;;;;;;;;;;4958827;28;20042;-55
2021/04/01 00:11:47;;;;;;;5.30;1.17;;;;;;;;;;4959870;28;20085;-55
2021/04/01 00:14:13;;;;;;;5.93;1.17;;;;;;;;;;4959721;28;20068;-56
2021/04/01 00:16:39;;;;;;;10.25;1.60;;;;;;;;;;4959299;28;20101;-51
2021/04/01 00:19:05;;;;;;;4.82;1.08;;;;;;;;;;4959267;28;20428;-55
2021/04/01 00:21:30;;;;;;;4.32;1.20;;;;;;;;;;4960030;28;20035;-54
2021/04/01 00:23:56;;;;;;;5.82;1.10;;;;;;;;;;4963549;28;20492;-55
2021/04/01 00:26:22;;;;;;;5.00;1.10;;;;;;;;;;4962370;28;20609;-55
2021/04/01 00:28:48;;;;;;;9.40;1.50;;;;;;;;;;4962830;28;20412;-55
2021/04/01 00:31:14;;;;;;;5.75;1.30;;;;;;;;;;4963964;28;20051;-56
2021/04/01 00:33:40;;;;;;;5.15;1.25;;;;;;;;;;4963669;28;20057;-54
2021/04/01 00:36:06;;;;;;;4.03;1.10;;;;;;;;;;4963175;28;20043;-54
2021/04/01 00:38:32;;;;;;;8.38;1.15;;;;;;;;;;4962288;28;20042;-56
2021/04/01 00:40:57;;;;;;;8.93;1.30;;;;;;;;;;4963733;28;20039;-56
2021/04/01 00:43:23;;;;;;;8.45;1.20;;;;;;;;;;4962896;28;20046;-54
2021/04/01 00:45:49;;;;;;;5.28;1.08;;;;;;;;;;4963845;28;20066;-57
2021/04/01 00:48:15;;;;;;;8.73;1.25;;;;;;;;;;4962648;28;20039;-54
2021/04/01 00:50:41;;;;;;;10.63;1.60;;;;;;;;;;4963243;28;20109;-55
2021/04/01 00:53:06;;;;;;;5.38;1.00;;;;;;;;;;4962843;28;20034;-56
2021/04/01 00:55:33;;;;;;;6.03;1.20;;;;;;;;;;4963304;28;20491;-54
2021/04/01 00:58:00;;;;;;;9.77;1.35;;;;;;;;;;4963798;28;21578;-53
2021/04/01 01:00:28;;;;;;;8.68;1.40;;;;;;;;;;4962047;28;21072;-56
2021/04/01 01:02:54;;;;;;;9.95;1.27;;;;;;;;;;4961935;28;20102;-55
2021/04/01 01:05:21;;;;;;;5.35;1.20;;;;;;;;;;4994002;28;20133;-56
2021/04/01 01:07:47;;;;;;;7.95;1.30;;;;;;;;;;4962743;28;20085;-56
2021/04/01 01:10:18;;;;;;;10.50;1.50;;;;;;;;;;4963170;28;20053;-57
2021/04/01 01:12:43;;;;;;;6.47;1.23;;;;;;;;;;4962193;28;20034;-56
2021/04/01 01:15:10;;;;;;;7.45;1.20;;;;;;;;;;4965089;28;20046;-57
2021/04/01 01:17:36;;;;;;;7.97;1.20;;;;;;;;;;4964223;28;20429;-56
2021/04/01 01:20:04;;;;;;;4.78;1.30;;;;;;;;;;4963029;28;20046;-54
2021/04/01 01:22:30;;;;;;;7.05;1.25;;;;;;;;;;4964086;28;20086;-56
2021/04/01 01:24:56;;;;;;;7.60;1.45;;;;;;;;;;4962662;28;20436;-57
2021/04/01 01:27:22;;;;;;;7.68;1.27;;;;;;;;;;4962543;28;20063;-56
2021/04/01 01:29:48;;;;;;;6.13;1.45;;;;;;;;;;4961644;28;20042;-56
2021/04/01 01:32:15;;;;;;;6.97;1.45;;;;;;;;;;4983803;28;20046;-54
2021/04/01 01:34:41;;;;;;;9.20;1.48;;;;;;;;;;4962733;28;20039;-55
2021/04/01 01:37:07;;;;;;;8.20;1.33;;;;;;;;;;4964009;28;20093;-56
2021/04/01 01:39:33;;;;;;;9.27;1.42;;;;;;;;;;4962287;28;20563;-55
2021/04/01 01:41:59;;;;;;;5.20;1.30;;;;;;;;;;4962422;28;20495;-57
2021/04/01 01:44:24;;;;;;;5.75;1.40;;;;;;;;;;4961333;28;20038;-56
2021/04/01 01:46:50;;;;;;;10.45;1.50;;;;;;;;;;4962343;28;20077;-54
2021/04/01 01:49:16;;;;;;;8.80;1.40;;;;;;;;;;4962196;28;20125;-52
2021/04/01 01:51:42;;;;;;;9.45;1.38;;;;;;;;;;4961593;28;20051;-52
2021/04/01 01:54:08;;;;;;;7.50;1.42;;;;;;;;;;4962515;28;20161;-56
2021/04/01 01:56:34;;;;;;;10.32;1.60;;;;;;;;;;4963929;28;20559;-58
2021/04/01 01:59:00;;;;;;;6.95;1.63;;;;;;;;;;4960316;28;20088;-57
2021/04/01 02:01:26;;;;;;;7.25;1.70;;;;;;;;;;4969550;28;21834;-55
2021/04/01 02:03:53;;;;;;;7.32;1.40;;;;;;;;;;4978388;28;20055;-55
2021/04/01 02:06:20;;;;;;;10.70;1.40;;;;;;;;;;4960179;28;20055;-55
2021/04/01 02:08:49;;;;;;;4.10;1.50;;;;;;;;;;4962189;28;20039;-53
2021/04/01 02:11:16;;;;;;;6.72;1.50;;;;;;;;;;4964961;28;20491;-51
2021/04/01 02:13:42;;;;;;;11.10;1.35;;;;;;;;;;4962176;28;20062;-54
2021/04/01 02:16:08;;;;;;;5.75;1.02;;;;;;;;;;4961414;28;20046;-55
2021/04/01 02:18:33;;;;;;;7.40;1.73;;;;;;;;;;4962613;28;20799;-55
2021/04/01 02:21:00;;;;;;;5.57;1.92;;;;;;;;;;4962739;28;20030;-54
2021/04/01 02:23:33;;;;;;;7.53;1.40;;;;;;;;;;4961947;28;20045;-50
2021/04/01 02:26:00;;;;;;;10.02;1.63;;;;;;;;;;4962365;28;20053;-54
2021/04/01 02:28:27;;;;;;;8.05;1.58;;;;;;;;;;4976076;28;20047;-53
2021/04/01 02:30:54;;;;;;;10.57;1.73;;;;;;;;;;4963760;28;20043;-51
2021/04/01 02:33:21;;;;;;;5.00;1.17;;;;;;;;;;4962516;28;20031;-52
2021/04/01 02:35:47;;;;;;;6.53;1.13;;;;;;;;;;4962551;28;20046;-53
2021/04/01 02:38:13;;;;;;;11.77;1.83;;;;;;;;;;4960978;28;20049;-55
2021/04/01 02:40:39;;;;;;;4.75;1.30;;;;;;;;;;4961000;28;20034;-54
2021/04/01 02:43:05;;;;;;;9.82;1.38;;;;;;;;;;4960936;28;20059;-52
2021/04/01 02:45:31;;;;;;;9.02;1.70;;;;;;;;;;4992147;28;20046;-55
2021/04/01 02:47:58;;;;;;;12.27;1.60;;;;;;;;;;4962203;28;20045;-55
2021/04/01 02:50:24;;;;;;;7.95;1.50;;;;;;;;;;4962082;28;20073;-54
2021/04/01 02:52:50;;;;;;;8.10;1.50;;;;;;;;;;4963514;28;20820;-55
2021/04/01 02:55:15;;;;;;;6.65;1.50;;;;;;;;;;4961690;28;20042;-56
2021/04/01 02:57:41;;;;;;;8.88;1.40;;;;;;;;;;4960392;28;20164;-55
2021/04/01 03:00:11;;;;;;;8.52;1.50;;;;;;;;;;4962257;28;20045;-55
2021/04/01 03:02:39;;;;;;;9.00;1.60;;;;;;;;;;4960169;28;20630;-56
2021/04/01 03:05:07;;;;;;;6.72;1.40;;;;;;;;;;4961940;28;20180;-56
2021/04/01 03:07:34;;;;;;;6.68;1.63;;;;;;;;;;4962114;28;20515;-58
2021/04/01 03:10:00;;;;;;;4.97;1.35;;;;;;;;;;4960680;28;20098;-55
2021/04/01 03:12:26;;;;;;;8.35;1.83;;;;;;;;;;4961091;28;20463;-55
2021/04/01 03:14:52;;;;;;;10.23;1.80;;;;;;;;;;4960274;28;20070;-55
2021/04/01 03:17:18;;;;;;;8.40;1.67;;;;;;;;;;4961258;28;20042;-55
2021/04/01 03:19:44;;;;;;;8.63;2.20;;;;;;;;;;4960774;28;20038;-56
2021/04/01 03:22:10;;;;;;;7.65;1.55;;;;;;;;;;4992096;28;20559;-55
2021/04/01 03:24:36;;;;;;;8.45;1.67;;;;;;;;;;4961305;28;20047;-58
2021/04/01 03:27:02;;;;;;;6.30;1.65;;;;;;;;;;4961159;28;20062;-56
2021/04/01 03:29:28;;;;;;;12.93;1.75;;;;;;;;;;4959972;28;20109;-54
2021/04/01 03:31:54;;;;;;;7.93;1.60;;;;;;;;;;4960532;28;20046;-54
2021/04/01 03:34:20;;;;;;;6.68;1.63;;;;;;;;;;4960336;28;20143;-55
2021/04/01 03:36:46;;;;;;;10.18;2.08;;;;;;;;;;4959312;28;20054;-56
2021/04/01 03:39:12;;;;;;;8.27;1.70;;;;;;;;;;4959680;28;20570;-57
2021/04/01 03:41:38;;;;;;;11.57;1.58;;;;;;;;;;4958362;28;20522;-52
2021/04/01 03:44:04;;;;;;;8.77;1.75;;;;;;;;;;4959961;28;20046;-54
2021/04/01 03:46:30;;;;;;;9.07;2.00;;;;;;;;;;4960086;28;20050;-54
2021/04/01 03:48:56;;;;;;;9.30;2.50;;;;;;;;;;4958085;28;20062;-51
2021/04/01 03:51:22;;;;;;;7.13;1.77;;;;;;;;;;4961890;28;20035;-54
2021/04/01 03:53:48;;;;;;;12.45;2.10;;;;;;;;;;4962639;28;20038;-53
2021/04/01 03:56:14;;;;;;;10.55;1.88;;;;;;;;;;4958593;28;20050;-52
2021/04/01 04:01:52;;;;;;;10.63;2.10;;;;;;;;;;4963900;28;20468;-56
2021/04/01 04:14:30;;;;;;;8.43;1.50;;;;;;;;;;4964955;28;20066;-56
2021/04/01 04:16:56;;;;;;;6.85;1.73;;;;;;;;;;4978826;28;20078;-53
2021/04/01 04:19:22;;;;;;;7.50;1.88;;;;;;;;;;4962912;28;20563;-55
2021/04/01 04:21:48;;;;;;;5.80;2.22;;;;;;;;;;4964304;28;20504;-53
2021/04/01 04:24:14;;;;;;;5.60;1.50;;;;;;;;;;4964525;28;20046;-56
2021/04/01 04:26:40;;;;;;;7.90;1.70;;;;;;;;;;4961801;28;20080;-56
2021/04/01 04:29:06;;;;;;;8.00;1.50;;;;;;;;;;4966695;28;20174;-56
2021/04/01 04:31:31;;;;;;;10.50;1.60;;;;;;;;;;4964866;28;20046;-56
2021/04/01 04:33:57;;;;;;;8.73;1.65;;;;;;;;;;4965068;28;20034;-56
2021/04/01 04:36:23;;;;;;;12.35;1.77;;;;;;;;;;4963632;28;20054;-52
2021/04/01 04:38:49;;;;;;;6.95;1.70;;;;;;;;;;4951554;28;20618;-56
2021/04/01 04:41:15;;;;;;;9.20;2.83;;;;;;;;;;4963673;28;20043;-56
2021/04/01 04:43:41;;;;;;;8.15;1.73;;;;;;;;;;4964342;28;20042;-54
2021/04/01 04:46:10;;;;;;;6.47;2.00;;;;;;;;;;4963422;28;20833;-53
2021/04/01 04:48:36;;;;;;;11.13;2.17;;;;;;;;;;4963224;28;20049;-57
2021/04/01 04:51:01;;;;;;;10.77;1.95;;;;;;;;;;4964611;28;20038;-56
2021/04/01 04:53:27;;;;;;;9.77;2.05;;;;;;;;;;4964565;28;20090;-54
2021/04/01 04:58:53;;;;;;;6.18;1.83;;;;;;;;;;4963723;28;20043;-55
2021/04/01 05:08:58;;;;;;;8.15;1.77;;;;;;;;;;4979857;28;20117;-56
2021/04/01 05:11:25;;;;;;;8.60;1.50;;;;;;;;;;4967476;28;20149;-55
2021/04/01 05:13:51;;;;;;;9.43;2.13;;;;;;;;;;4964275;28;20030;-56
2021/04/01 05:16:21;;;;;;;9.65;1.80;;;;;;;;;;4964006;28;20057;-53
2021/04/01 05:18:47;;;;;;;9.48;1.40;;;;;;;;;;4954481;28;20050;-53
2021/04/01 05:21:14;;;;;;;6.80;2.10;;;;;;;;;;4964072;28;20043;-53
2021/04/01 05:23:51;;;;;;;9.90;1.38;;;;;;;;;;4962614;28;20049;-55
2021/04/01 05:28:52;;;;;;;3.55;1.20;;;;;;;;;;4960246;28;20050;-56
2021/04/01 05:31:19;;;;;;;8.15;1.55;;;;;;;;;;4984916;28;20991;-55
2021/04/01 05:33:48;;;;;;;6.97;1.52;;;;;;;;;;4979618;28;20045;-55
2021/04/01 05:36:22;;;;;;;7.55;1.20;;;;;;;;;;4963492;28;20121;-54
2021/04/01 05:38:51;;;;;;;9.93;1.45;;;;;;;;;;4990980;28;20061;-55
2021/04/01 05:41:17;;;;;;;7.80;1.67;;;;;;;;;;4965564;28;20038;-57
2021/04/01 05:43:46;;;;;;;6.07;1.33;;;;;;;;;;4964392;28;20543;-54
2021/04/01 05:46:26;;;;;;;6.93;1.20;;;;;;;;;;4964241;28;20479;-53
2021/04/01 05:49:02;;;;;;;6.65;1.33;;;;;;;;;;4961765;28;20046;-53
2021/04/01 06:04:55;;;;;;;9.70;1.40;;;;;;;;;;4964557;28;20175;-56
2021/04/01 06:07:28;;;;;;;6.68;1.40;;;;;;;;;;4962181;28;20774;-55
2021/04/01 06:09:57;;;;;;;8.07;1.30;;;;;;;;;;4962395;28;20049;-51
2021/04/01 06:12:29;;;;;;;14.55;2.45;;;;;;;;;;4961487;28;20516;-55
2021/04/01 06:14:55;;;;;;;5.95;1.33;;;;;;;;;;4963751;28;20424;-51
2021/04/01 06:17:23;;;;;;;9.10;1.45;;;;;;;;;;4992339;28;20039;-55
2021/04/01 06:19:52;;;;;;;14.52;1.80;;;;;;;;;;4962952;28;20216;-54
2021/04/01 06:22:20;;;;;;;12.57;1.70;;;;;;;;;;4962626;28;20473;-51
2021/04/01 06:25:09;;;;;;;4.57;1.40;;;;;;;;;;4958684;28;20487;-56
2021/04/01 06:27:39;;;;;;;5.47;1.20;;;;;;;;;;4959644;28;20043;-51
2021/04/01 06:30:14;;;;;;;7.75;1.27;;;;;;;;;;4958958;28;20043;-55
2021/04/01 06:32:53;;;;;;;8.10;1.65;;;;;;;;;;4959235;28;20054;-56
2021/04/01 06:40:37;;;;;;;5.88;1.20;;;;;;;;;;4958408;28;20047;-56
2021/04/01 06:43:08;;;;;;;4.13;1.38;;;;;;;;;;4960921;28;20225;-51
2021/04/01 06:45:35;;;;;;;8.50;1.20;;;;;;;;;;4959345;28;20122;-57
2021/04/01 06:48:01;;;;;;;5.43;1.58;;;;;;;;;;4944223;28;20061;-57
2021/04/01 06:50:33;;;;;;;8.80;1.60;;;;;;;;;;4959999;28;20183;-56
2021/04/01 06:53:09;;;;;;;5.97;1.63;;;;;;;;;;4961693;28;20035;-57
2021/04/01 06:55:45;;;;;;;18.65;2.15;;;;;;;;;;4958267;28;20466;-54
2021/04/01 06:58:22;;;;;;;6.88;2.45;;;;;;;;;;4963749;28;20075;-57
2021/04/01 07:01:10;;;;;;;7.57;1.40;;;;;;;;;;4961829;28;20078;-57
2021/04/01 07:03:41;;;;;;;13.43;1.63;;;;;;;;;;4961268;28;20074;-58
2021/04/01 07:06:13;;;;;;;9.93;1.80;;;;;;;;;;4962088;28;20050;-56
2021/04/01 07:11:25;;;;;;;5.63;1.58;;;;;;;;;;4961871;28;20046;-56
2021/04/01 07:13:55;;;;;;;5.85;1.65;;;;;;;;;;4962369;28;20515;-55
2021/04/01 07:16:38;;;;;;;7.93;1.80;;;;;;;;;;4962024;28;20034;-56
2021/04/01 07:48:57;;;;;;;8.07;1.30;;;;;;;;;;4959217;28;20736;-55
2021/04/01 07:54:12;;;;;;;7.13;1.50;;;;;;;;;;4962020;28;20046;-55
2021/04/01 08:04:18;;;;;;;6.57;1.58;;;;;;;;;;4960177;28;20488;-53
2021/04/01 08:06:44;;;;;;;6.88;1.90;;;;;;;;;;4961827;28;20049;-53
2021/04/01 08:09:12;;;;;;;8.07;1.40;;;;;;;;;;4962530;28;20043;-57
2021/04/01 08:11:43;;;;;;;7.35;1.45;;;;;;;;;;4962732;28;21115;-54
2021/04/01 08:14:16;;;;;;;7.50;1.60;;;;;;;;;;4963313;28;20043;-55
2021/04/01 08:17:04;;;;;;;6.80;1.57;;;;;;;;;;4961056;28;20046;-57
2021/04/01 08:19:33;;;;;;;11.30;1.80;;;;;;;;;;4959882;28;20288;-55
2021/04/01 08:22:00;;;;;;;10.25;1.48;;;;;;;;;;4962120;28;20042;-53
2021/04/01 08:24:36;;;;;;;5.95;1.40;;;;;;;;;;4959337;28;20110;-56
2021/04/01 08:27:27;;;;;;;7.78;1.67;;;;;;;;;;4960053;28;20064;-53
2021/04/01 08:35:27;;;;;;;7.70;1.70;;;;;;;;;;4961200;28;20042;-55
2021/04/01 08:38:10;;;;;;;6.13;1.42;;;;;;;;;;4962353;28;20030;-57
2021/04/01 08:40:36;;;;;;;6.50;1.30;;;;;;;;;;4960587;28;20134;-56
2021/04/01 08:43:13;;;;;;;6.18;1.40;;;;;;;;;;4961623;28;20039;-56
2021/04/01 08:45:38;;;;;;;6.72;1.10;;;;;;;;;;4962863;28;20632;-56
2021/04/01 08:48:13;;;;;;;8.40;1.42;;;;;;;;;;4964378;28;20042;-57
2021/04/01 08:51:03;;;;;;;9.10;1.48;;;;;;;;;;4964655;28;20181;-56
2021/04/01 08:53:36;;;;;;;5.25;1.92;;;;;;;;;;4963485;28;20097;-55
2021/04/01 08:56:24;;;;;;;5.75;1.35;;;;;;;;;;4964694;28;20042;-54
2021/04/01 08:59:03;;;;;;;5.07;1.30;;;;;;;;;;4964104;28;20150;-56
2021/04/01 09:01:31;;;;;;;7.38;1.50;;;;;;;;;;4964375;28;20042;-53
2021/04/01 09:03:59;;;;;;;5.55;1.50;;;;;;;;;;4964669;28;20550;-55
2021/04/01 09:06:27;;;;;;;6.22;1.58;;;;;;;;;;4963644;28;20104;-55
2021/04/01 09:09:02;;;;;;;5.68;1.52;;;;;;;;;;4963055;28;20042;-55
2021/04/01 09:11:34;;;;;;;8.93;1.50;;;;;;;;;;4963526;28;20459;-55
2021/04/01 09:14:00;;;;;;;6.40;1.40;;;;;;;;;;4964279;28;20097;-55
2021/04/01 09:16:30;;;;;;;8.20;2.08;;;;;;;;;;4964697;28;20066;-52
2021/04/01 09:19:04;;;;;;;12.15;1.48;;;;;;;;;;4964651;28;20043;-56
2021/04/01 09:21:35;;;;;;;11.30;1.60;;;;;;;;;;4963729;28;20519;-56
2021/04/01 09:24:01;;;;;;;11.48;1.77;;;;;;;;;;4965205;28;20100;-55
2021/04/01 09:26:27;;;;;;;9.15;1.90;;;;;;;;;;4964210;28;20039;-56
2021/04/01 09:29:04;;;;;;;9.90;1.65;;;;;;;;;;4965816;28;20042;-55
2021/04/01 09:31:43;;;;;;;6.25;1.30;;;;;;;;;;4963871;28;20078;-55
2021/04/01 09:34:10;;;;;;;5.20;1.30;;;;;;;;;;4963808;28;20398;-55
2021/04/01 09:36:40;;;;;;;6.75;1.27;;;;;;;;;;4963012;28;20089;-56
2021/04/01 09:39:49;;;;;;;7.22;1.50;;;;;;;;;;4963628;28;20538;-57
2021/04/01 09:41:56;;;;;;;4.15;1.23;;;;;;;;;;4966270;28;20581;-55
2021/04/01 09:44:22;;;;;;;4.30;1.40;;;;;;;;;;4961766;28;20170;-55
2021/04/01 09:47:07;;;;;;;11.63;1.50;;;;;;;;;;4964429;28;20285;-53
2021/04/01 09:49:53;;;;;;;5.80;1.60;;;;;;;;;;4962486;28;21995;-54
2021/04/01 09:52:27;;;;;;;8.25;1.73;;;;;;;;;;4962031;28;20157;-54
2021/04/01 09:54:57;;;;;;;6.10;1.48;;;;;;;;;;4961133;28;20042;-55
2021/04/01 09:57:26;;;;;;;5.32;1.70;;;;;;;;;;4960948;28;20050;-55
2021/04/01 10:00:07;;;;;;;6.90;1.75;;;;;;;;;;4962425;28;20063;-54
2021/04/01 10:02:34;;;;;;;7.47;1.85;;;;;;;;;;4963144;28;20129;-56
2021/04/01 10:05:04;;;;;;;7.38;2.10;;;;;;;;;;4962450;28;20086;-53
2021/04/01 10:07:36;;;;;;;6.85;2.15;;;;;;;;;;4959267;28;20058;-55
2021/04/01 10:10:04;;;;;;;12.02;2.33;;;;;;;;;;4963551;28;20126;-56
2021/04/01 10:12:34;;;;;;;7.22;1.98;;;;;;;;;;4961868;28;20053;-55
2021/04/01 10:15:02;;;;;;;6.35;1.70;;;;;;;;;;4962215;28;20511;-54
2021/04/01 10:17:28;;;;;;;12.00;1.65;;;;;;;;;;4961673;28;20042;-56
2021/04/01 10:19:55;;;;;;;8.40;1.73;;;;;;;;;;4963334;28;20050;-52
2021/04/01 10:22:28;;;;;;;8.60;1.70;;;;;;;;;;4962072;28;20506;-56
2021/04/01 10:25:10;;;;;;;5.40;2.03;;;;;;;;;;4963252;28;20168;-55
2021/04/01 10:27:51;;;;;;;6.38;1.70;;;;;;;;;;4959844;28;20051;-56
2021/04/01 10:30:17;;;;;;;7.15;1.55;;;;;;;;;;4961969;28;20145;-57
2021/04/01 10:32:54;;;;;;;6.15;1.60;;;;;;;;;;4961169;28;20046;-55
2021/04/01 10:35:24;;;;;;;9.25;1.77;;;;;;;;;;4960873;28;20034;-56
2021/04/01 10:37:51;;;;;;;7.10;1.58;;;;;;;;;;4961795;28;20046;-56
2021/04/01 10:40:18;;;;;;;8.10;1.40;;;;;;;;;;4961184;28;20066;-53
2021/04/01 10:42:45;;;;;;;7.00;1.65;;;;;;;;;;4961865;28;20035;-54
2021/04/01 10:45:13;;;;;;;5.75;1.60;;;;;;;;;;4962406;28;20035;-51
2021/04/01 10:47:58;;;;;;;6.30;1.63;;;;;;;;;;4961243;28;20047;-53
2021/04/01 10:50:28;;;;;;;5.22;1.60;;;;;;;;;;4960865;28;20530;-55
2021/04/01 10:52:54;;;;;;;9.52;1.65;;;;;;;;;;4962833;28;20046;-56
2021/04/01 10:55:30;;;;;;;8.57;1.67;;;;;;;;;;4962408;28;20034;-55
2021/04/01 10:58:09;;;;;;;5.53;1.70;;;;;;;;;;4962140;28;20507;-57
2021/04/01 11:00:36;;;;;;;5.63;1.58;;;;;;;;;;4960572;28;20047;-55
2021/04/01 11:03:03;;;;;;;10.80;1.98;;;;;;;;;;4962938;28;20034;-56
2021/04/01 11:05:31;;;;;;;10.25;1.67;;;;;;;;;;4961005;28;20041;-53
2021/04/01 11:08:11;;;;;;;7.82;1.90;;;;;;;;;;4961896;28;20051;-56
2021/04/01 11:10:37;;;;;;;8.57;2.00;;;;;;;;;;4959083;28;20093;-55
2021/04/01 11:13:04;;;;;;;7.65;1.77;;;;;;;;;;4962288;28;20392;-55
2021/04/01 11:15:31;;;;;;;7.35;1.88;;;;;;;;;;4961498;28;20100;-54
2021/04/01 11:18:01;;;;;;;12.50;1.70;;;;;;;;;;4961031;28;20101;-57
2021/04/01 11:20:32;;;;;;;6.95;1.38;;;;;;;;;;4961685;28;20058;-57
2021/04/01 11:22:59;;;;;;;9.32;1.50;;;;;;;;;;4963420;28;22029;-54
2021/04/01 11:25:25;;;;;;;13.38;2.33;;;;;;;;;;4961703;28;20046;-55
2021/04/01 11:27:51;;;;;;;7.97;1.80;;;;;;;;;;4960986;28;20389;-57
2021/04/01 11:30:18;;;;;;;6.80;1.83;;;;;;;;;;4961610;28;20046;-58
2021/04/01 11:32:50;;;;;;;5.38;1.33;;;;;;;;;;4962355;28;20043;-57
2021/04/01 11:35:16;;;;;;;6.28;1.30;;;;;;;;;;4963705;28;20039;-57
2021/04/01 11:37:47;;;;;;;8.25;1.40;;;;;;;;;;4961327;28;20221;-56
2021/04/01 11:40:13;;;;;;;7.95;2.15;;;;;;;;;;4960246;28;20031;-55
2021/04/01 11:42:39;;;;;;;5.82;1.50;;;;;;;;;;4962220;28;20054;-55
2021/04/01 11:45:08;;;;;;;6.03;1.40;;;;;;;;;;4962442;28;20267;-53
2021/04/01 11:47:39;;;;;;;12.70;1.73;;;;;;;;;;4960811;28;20100;-55
2021/04/01 11:50:05;;;;;;;11.40;1.85;;;;;;;;;;4962369;28;20108;-57
2021/04/01 11:52:32;;;;;;;5.85;1.70;;;;;;;;;;4960597;28;20460;-54
2021/04/01 11:55:07;;;;;;;9.35;1.75;;;;;;;;;;4962127;28;20047;-57
2021/04/01 11:57:33;;;;;;;7.72;1.45;;;;;;;;;;4960560;28;20323;-56
2021/04/01 12:00:25;;;;;;;8.57;1.70;;;;;;;;;;4959905;28;20050;-54
2021/04/01 12:05:32;;;;;;;5.10;1.50;;;;;;;;;;4962108;28;20054;-55
2021/04/01 12:07:58;;;;;;;8.38;1.95;;;;;;;;;;4966963;28;20074;-53
2021/04/01 12:10:24;;;;;;;20.95;3.28;;;;;;;;;;4959645;28;20951;-56
2021/04/01 12:12:55;;;;;;;38.65;4.13;;;;;;;;;;4960592;28;20069;-51
2021/04/01 12:15:30;;;;;;;23.33;2.80;;;;;;;;;;4959380;28;20117;-55
2021/04/01 12:17:56;;;;;;;20.40;3.10;;;;;;;;;;4961193;28;20039;-55
2021/04/01 12:20:26;;;;;;;11.43;2.55;;;;;;;;;;4962589;28;20047;-53
2021/04/01 12:22:54;;;;;;;9.27;1.90;;;;;;;;;;4964199;28;20045;-51
2021/04/01 12:25:21;;;;;;;15.95;2.60;;;;;;;;;;4964316;28;20070;-54
2021/04/01 12:27:54;;;;;;;11.07;2.40;;;;;;;;;;4964557;28;20054;-54
2021/04/01 12:30:31;;;;;;;12.75;2.42;;;;;;;;;;4962348;28;20058;-53
2021/04/01 12:33:13;;;;;;;8.82;2.00;;;;;;;;;;4965641;28;20138;-53
2021/04/01 12:35:56;;;;;;;12.60;1.92;;;;;;;;;;4963847;28;22147;-53
2021/04/01 12:38:34;;;;;;;13.93;1.73;;;;;;;;;;4963884;28;20431;-55
2021/04/01 12:41:02;;;;;;;12.48;2.20;;;;;;;;;;4963886;28;20797;-56
2021/04/01 12:43:54;;;;;;;12.88;2.13;;;;;;;;;;4964508;28;20994;-53
2021/04/01 12:46:20;;;;;;;18.88;2.78;;;;;;;;;;4961865;28;20444;-52
2021/04/01 12:48:48;;;;;;;19.92;3.05;;;;;;;;;;4965077;28;20038;-54
2021/04/01 12:51:18;;;;;;;23.38;3.67;;;;;;;;;;4995794;28;20055;-55
2021/04/01 12:53:44;;;;;;;14.65;3.10;;;;;;;;;;4962880;28;20034;-53
2021/04/01 12:56:16;;;;;;;15.70;2.80;;;;;;;;;;4962734;28;20558;-53
2021/04/01 13:01:16;;;;;;;9.25;2.60;;;;;;;;;;4963943;28;20692;-55
2021/04/01 13:03:42;;;;;;;19.88;2.97;;;;;;;;;;4963175;28;20073;-53
2021/04/01 13:06:14;;;;;;;24.80;3.08;;;;;;;;;;4982303;28;20157;-54
2021/04/01 13:11:16;;;;;;;20.05;4.07;;;;;;;;;;4962842;28;20045;-53
2021/04/01 13:13:42;;;;;;;18.27;3.20;;;;;;;;;;4963508;28;20566;-52
2021/04/01 13:16:08;;;;;;;25.15;2.80;;;;;;;;;;4963304;28;20039;-51
2021/04/01 13:18:34;;;;;;;29.92;4.63;;;;;;;;;;4962465;28;20047;-55
2021/04/01 13:21:01;;;;;;;15.65;3.28;;;;;;;;;;4963132;28;20039;-56
2021/04/01 13:23:44;;;;;;;26.10;4.97;;;;;;;;;;4961812;28;20030;-55
2021/04/01 13:26:13;;;;;;;22.60;5.30;;;;;;;;;;4964102;28;20124;-53
2021/04/01 13:28:42;;;;;;;26.63;4.10;;;;;;;;;;4962466;28;20068;-51
2021/04/01 13:31:16;;;;;;;22.38;4.57;;;;;;;;;;4962761;28;20031;-53
2021/04/01 13:33:48;;;;;;;28.60;4.50;;;;;;;;;;4966104;28;20772;-54
2021/04/01 13:36:22;;;;;;;19.70;3.38;;;;;;;;;;4961412;28;20042;-56
2021/04/01 13:38:48;;;;;;;15.30;3.85;;;;;;;;;;4960886;28;20049;-52
2021/04/01 13:41:18;;;;;;;28.23;3.55;;;;;;;;;;4963876;28;20043;-55
2021/04/01 13:43:44;;;;;;;28.17;3.55;;;;;;;;;;4962531;28;20348;-53
2021/04/01 13:46:10;;;;;;;18.77;3.00;;;;;;;;;;4961814;28;20518;-52
2021/04/01 13:48:38;;;;;;;31.30;3.83;;;;;;;;;;4960838;28;20066;-51
2021/04/01 13:51:15;;;;;;;13.45;2.90;;;;;;;;;;4962596;28;20142;-57
2021/04/01 13:56:24;;;;;;;42.13;5.55;;;;;;;;;;4962113;28;20699;-55
2021/04/01 13:59:15;;;;;;;33.63;4.22;;;;;;;;;;4962506;28;20098;-54
2021/04/01 14:09:49;;;;;;;20.55;5.15;;;;;;;;;;4961244;28;20177;-55
2021/04/01 14:12:20;;;;;;;23.40;3.33;;;;;;;;;;4963172;28;20122;-53
2021/04/01 14:14:46;;;;;;;17.63;3.10;;;;;;;;;;4958190;28;20050;-54
2021/04/01 14:17:15;;;;;;;17.55;3.30;;;;;;;;;;4962221;28;20463;-57
2021/04/01 14:19:42;;;;;;;16.42;2.20;;;;;;;;;;4993117;28;20047;-56
2021/04/01 14:22:08;;;;;;;15.50;2.55;;;;;;;;;;4962565;28;20043;-55
2021/04/01 14:24:43;;;;;;;17.55;2.35;;;;;;;;;;4961177;28;20046;-57
2021/04/01 14:27:24;;;;;;;23.45;2.72;;;;;;;;;;4961305;28;20069;-54
2021/04/01 14:29:57;;;;;;;14.00;2.50;;;;;;;;;;4963893;28;20045;-52
2021/04/01 14:32:27;;;;;;;18.70;2.72;;;;;;;;;;4962511;28;20042;-53
2021/04/01 14:35:01;;;;;;;19.13;2.85;;;;;;;;;;4963641;28;20038;-53
2021/04/01 14:37:31;;;;;;;18.55;2.72;;;;;;;;;;4961627;28;20419;-57
2021/04/01 14:39:57;;;;;;;20.92;3.28;;;;;;;;;;4963138;28;20042;-55
2021/04/01 14:42:33;;;;;;;20.73;2.90;;;;;;;;;;4962499;28;20689;-56
2021/04/01 14:44:59;;;;;;;26.13;3.13;;;;;;;;;;4966406;28;20533;-56
2021/04/01 14:47:25;;;;;;;17.90;2.60;;;;;;;;;;4963139;28;20053;-56
2021/04/01 14:49:54;;;;;;;14.32;2.60;;;;;;;;;;4964534;28;20058;-57
2021/04/01 14:52:25;;;;;;;21.40;2.33;;;;;;;;;;4963537;28;20444;-54
2021/04/01 14:54:55;;;;;;;12.52;2.45;;;;;;;;;;4962942;28;20574;-54
2021/04/01 14:57:22;;;;;;;13.90;2.40;;;;;;;;;;4962982;28;20050;-56
2021/04/01 14:59:49;;;;;;;10.57;2.03;;;;;;;;;;4963150;28;20124;-57
2021/04/01 15:02:15;;;;;;;15.35;2.65;;;;;;;;;;4954247;28;20042;-53
2021/04/01 15:04:42;;;;;;;10.13;2.08;;;;;;;;;;4953329;28;20116;-56
2021/04/01 15:07:08;;;;;;;8.48;2.22;;;;;;;;;;4952708;28;20050;-55
2021/04/01 15:09:34;;;;;;;12.45;2.30;;;;;;;;;;4952387;28;20190;-56
2021/04/01 15:12:00;;;;;;;19.25;2.50;;;;;;;;;;4953931;28;20042;-54
2021/04/01 15:14:26;;;;;;;14.15;2.60;;;;;;;;;;4961697;28;20075;-55
2021/04/01 15:16:53;;;;;;;10.95;2.50;;;;;;;;;;4963073;28;20042;-56
2021/04/01 15:19:19;;;;;;;13.93;2.80;;;;;;;;;;4962023;28;20512;-56
2021/04/01 15:21:50;;;;;;;17.67;3.05;;;;;;;;;;4964376;28;20049;-56
2021/04/01 15:24:16;;;;;;;12.98;2.83;;;;;;;;;;4962655;28;20034;-57
2021/04/01 15:26:42;;;;;;;13.45;3.22;;;;;;;;;;4960816;28;20054;-57
2021/04/01 15:29:09;;;;;;;15.05;3.20;;;;;;;;;;4961166;28;20085;-56
2021/04/01 15:31:35;;;;;;;15.07;3.08;;;;;;;;;;4960447;28;20571;-58
2021/04/01 15:34:00;;;;;;;23.35;3.35;;;;;;;;;;4962552;28;20053;-56
2021/04/01 15:36:27;;;;;;;14.50;2.80;;;;;;;;;;4961576;28;20413;-55
2021/04/01 15:38:53;;;;;;;16.45;2.75;;;;;;;;;;4961997;28;20035;-56
2021/04/01 15:41:18;;;;;;;16.92;2.78;;;;;;;;;;4961697;28;20045;-56
2021/04/01 15:43:44;;;;;;;21.77;3.58;;;;;;;;;;4964435;28;20051;-54
2021/04/01 15:46:11;;;;;;;9.13;2.03;;;;;;;;;;4962095;28;20046;-56
2021/04/01 15:48:37;;;;;;;12.73;2.15;;;;;;;;;;4964504;28;20054;-56
2021/04/01 15:51:03;;;;;;;16.95;2.33;;;;;;;;;;4963187;28;20030;-56
2021/04/01 15:53:29;;;;;;;9.68;2.33;;;;;;;;;;4961303;28;20069;-55
2021/04/01 15:55:55;;;;;;;18.70;3.13;;;;;;;;;;4961159;28;20051;-54
2021/04/01 15:58:21;;;;;;;11.70;3.00;;;;;;;;;;4962257;28;20569;-56
2021/04/01 16:00:48;;;;;;;14.98;2.90;;;;;;;;;;4963889;28;20039;-57
2021/04/01 16:03:13;;;;;;;13.13;3.65;;;;;;;;;;4962891;28;20043;-55
2021/04/01 16:05:39;;;;;;;18.65;3.03;;;;;;;;;;4962859;28;20094;-56
2021/04/01 16:08:05;;;;;;;10.18;2.95;;;;;;;;;;4963731;28;20082;-55
2021/04/01 16:10:31;;;;;;;11.30;3.38;;;;;;;;;;4960107;28;20050;-56
2021/04/01 16:13:02;;;;;;;20.65;3.80;;;;;;;;;;4963331;28;20242;-57
2021/04/01 16:15:28;;;;;;;17.85;3.47;;;;;;;;;;4962672;28;20046;-55
2021/04/01 16:17:54;;;;;;;18.85;3.30;;;;;;;;;;4961692;28;20086;-56
2021/04/01 16:20:19;;;;;;;20.13;3.55;;;;;;;;;;4962692;28;20110;-56
2021/04/01 16:22:45;;;;;;;27.02;3.78;;;;;;;;;;4962044;28;20058;-55
2021/04/01 16:25:11;;;;;;;22.83;4.25;;;;;;;;;;4961963;28;20137;-55
2021/04/01 16:27:37;;;;;;;15.82;4.00;;;;;;;;;;4962079;28;20054;-54
2021/04/01 16:30:05;;;;;;;19.17;4.55;;;;;;;;;;4961644;28;20046;-56
2021/04/01 16:32:33;;;;;;;17.83;3.67;;;;;;;;;;4962424;28;20066;-57
2021/04/01 16:35:00;;;;;;;24.67;3.97;;;;;;;;;;4962252;28;20077;-55
2021/04/01 16:37:29;;;;;;;23.70;3.80;;;;;;;;;;4962040;28;20051;-51
2021/04/01 16:39:55;;;;;;;22.73;3.75;;;;;;;;;;4962210;28;20127;-52
2021/04/01 16:42:21;;;;;;;20.80;3.92;;;;;;;;;;4962538;28;20066;-53